sensor_id;sensor_type;location;lat;lon;timestamp;temperature;humidity
48604;DHT22;32708;51.212;6.788;2023-04-03T00:02:02;5.20;99.90
48604;DHT22;32708;51.212;6.788;2023-04-03T00:04:28;5.30;99.90
48604;DHT22;32708;51.212;6.788;2023-04-03T00:06:54;5.20;96.70
48604;DHT22;32708;51.212;6.788;2023-04-03T00:09:20;5.10;98.70
48604;DHT22;32708;51.212;6.788;2023-04-03T00:11:46;5.20;99.90
48604;DHT22;32708;51.212;6.788;2023-04-03T00:14:12;4.90;99.90
48604;DHT22;32708;51.212;6.788;2023-04-03T00:16:38;4.80;99.90
48604;DHT22;32708;51.212;6.788;2023-04-03T00:19:04;4.90;99.90
48604;DHT22;32708;51.212;6.788;2023-04-03T00:21:31;5.10;99.90
48604;DHT22;32708;51.212;6.788;2023-04-03T00:23:57;4.90;99.90
48604;DHT22;32708;51.212;6.788;2023-04-03T00:26:23;4.70;99.90
48604;DHT22;32708;51.212;6.788;2023-04-03T00:28:49;4.60;99.90
48604;DHT22;32708;51.212;6.788;2023-04-03T00:31:16;4.70;99.90
48604;DHT22;32708;51.212;6.788;2023-04-03T00:33:42;4.70;99.90
48604;DHT22;32708;51.212;6.788;2023-04-03T00:36:10;4.60;99.90
48604;DHT22;32708;51.212;6.788;2023-04-03T00:38:36;4.60;99.90
48604;DHT22;32708;51.212;6.788;2023-04-03T00:41:03;4.50;99.90
48604;DHT22;32708;51.212;6.788;2023-04-03T00:43:29;4.40;99.90
48604;DHT22;32708;51.212;6.788;2023-04-03T00:45:56;4.40;99.90
48604;DHT22;32708;51.212;6.788;2023-04-03T00:48:39;4.50;99.90
48604;DHT22;32708;51.212;6.788;2023-04-03T00:51:11;4.40;99.90
48604;DHT22;32708;51.212;6.788;2023-04-03T00:53:46;4.30;99.90
48604;DHT22;32708;51.212;6.788;2023-04-03T00:56:16;4.40;99.90
48604;DHT22;32708;51.212;6.788;2023-04-03T00:58:51;4.40;99.90
48604;DHT22;32708;51.212;6.788;2023-04-03T01:01:22;4.50;99.90
48604;DHT22;32708;51.212;6.788;2023-04-03T01:03:49;4.50;99.90
48604;DHT22;32708;51.212;6.788;2023-04-03T01:06:21;4.50;99.90
48604;DHT22;32708;51.212;6.788;2023-04-03T01:08:50;4.40;99.90
48604;DHT22;32708;51.212;6.788;2023-04-03T01:11:16;4.30;99.90
48604;DHT22;32708;51.212;6.788;2023-04-03T01:13:43;4.40;99.90
48604;DHT22;32708;51.212;6.788;2023-04-03T01:16:09;4.40;99.90
48604;DHT22;32708;51.212;6.788;2023-04-03T01:18:38;4.40;99.90
48604;DHT22;32708;51.212;6.788;2023-04-03T01:24:18;4.50;99.90
48604;DHT22;32708;51.212;6.788;2023-04-03T01:26:48;4.70;99.90
48604;DHT22;32708;51.212;6.788;2023-04-03T01:29:14;5.00;99.90
48604;DHT22;32708;51.212;6.788;2023-04-03T01:31:58;4.50;99.20
48604;DHT22;32708;51.212;6.788;2023-04-03T01:34:26;4.40;99.90
48604;DHT22;32708;51.212;6.788;2023-04-03T01:36:53;4.50;99.20
48604;DHT22;32708;51.212;6.788;2023-04-03T01:39:20;4.50;96.10
48604;DHT22;32708;51.212;6.788;2023-04-03T01:41:47;4.50;95.10
48604;DHT22;32708;51.212;6.788;2023-04-03T01:44:20;4.50;93.30
48604;DHT22;32708;51.212;6.788;2023-04-03T01:46:46;4.60;91.30
48604;DHT22;32708;51.212;6.788;2023-04-03T01:49:12;4.80;91.00
48604;DHT22;32708;51.212;6.788;2023-04-03T01:51:38;4.50;92.80
48604;DHT22;32708;51.212;6.788;2023-04-03T01:54:04;4.50;91.00
48604;DHT22;32708;51.212;6.788;2023-04-03T01:56:31;4.50;90.90
48604;DHT22;32708;51.212;6.788;2023-04-03T01:58:57;4.60;89.50
48604;DHT22;32708;51.212;6.788;2023-04-03T02:01:23;4.60;83.50
48604;DHT22;32708;51.212;6.788;2023-04-03T02:03:49;4.60;82.10
48604;DHT22;32708;51.212;6.788;2023-04-03T02:06:15;4.50;81.60
48604;DHT22;32708;51.212;6.788;2023-04-03T02:08:41;4.50;84.70
48604;DHT22;32708;51.212;6.788;2023-04-03T02:11:07;4.50;85.70
48604;DHT22;32708;51.212;6.788;2023-04-03T02:13:33;4.60;84.90
48604;DHT22;32708;51.212;6.788;2023-04-03T02:16:05;4.60;82.70
48604;DHT22;32708;51.212;6.788;2023-04-03T02:18:31;4.50;87.20
48604;DHT22;32708;51.212;6.788;2023-04-03T02:20:57;4.50;91.40
48604;DHT22;32708;51.212;6.788;2023-04-03T02:23:23;4.40;91.70
48604;DHT22;32708;51.212;6.788;2023-04-03T02:25:50;5.00;89.80
48604;DHT22;32708;51.212;6.788;2023-04-03T02:28:16;4.50;90.10
48604;DHT22;32708;51.212;6.788;2023-04-03T02:30:42;4.40;93.30
48604;DHT22;32708;51.212;6.788;2023-04-03T02:33:09;4.40;92.50
48604;DHT22;32708;51.212;6.788;2023-04-03T02:35:36;4.30;93.70
48604;DHT22;32708;51.212;6.788;2023-04-03T02:38:02;4.70;97.00
48604;DHT22;32708;51.212;6.788;2023-04-03T02:40:29;4.30;96.80
48604;DHT22;32708;51.212;6.788;2023-04-03T02:42:55;4.20;95.50
48604;DHT22;32708;51.212;6.788;2023-04-03T02:45:23;4.20;97.00
48604;DHT22;32708;51.212;6.788;2023-04-03T02:47:49;4.20;95.50
48604;DHT22;32708;51.212;6.788;2023-04-03T02:50:16;4.60;95.40
48604;DHT22;32708;51.212;6.788;2023-04-03T02:52:42;4.10;97.20
48604;DHT22;32708;51.212;6.788;2023-04-03T02:55:14;4.10;98.10
48604;DHT22;32708;51.212;6.788;2023-04-03T02:57:43;4.20;96.20
48604;DHT22;32708;51.212;6.788;2023-04-03T03:00:09;4.10;97.20
48604;DHT22;32708;51.212;6.788;2023-04-03T03:02:35;4.00;98.10
48604;DHT22;32708;51.212;6.788;2023-04-03T03:05:02;4.10;98.70
48604;DHT22;32708;51.212;6.788;2023-04-03T03:07:28;4.20;97.10
48604;DHT22;32708;51.212;6.788;2023-04-03T03:09:54;4.20;97.90
48604;DHT22;32708;51.212;6.788;2023-04-03T03:12:20;4.00;98.60
48604;DHT22;32708;51.212;6.788;2023-04-03T03:14:50;4.10;97.50
48604;DHT22;32708;51.212;6.788;2023-04-03T03:17:17;3.90;99.00
48604;DHT22;32708;51.212;6.788;2023-04-03T03:19:43;3.90;99.90
48604;DHT22;32708;51.212;6.788;2023-04-03T03:22:11;4.10;99.90
48604;DHT22;32708;51.212;6.788;2023-04-03T03:24:37;4.00;98.80
48604;DHT22;32708;51.212;6.788;2023-04-03T03:27:03;3.90;99.80
48604;DHT22;32708;51.212;6.788;2023-04-03T03:29:29;4.20;99.90
48604;DHT22;32708;51.212;6.788;2023-04-03T03:31:55;4.00;99.80
48604;DHT22;32708;51.212;6.788;2023-04-03T03:34:21;3.90;99.80
48604;DHT22;32708;51.212;6.788;2023-04-03T03:36:47;3.80;99.90
48604;DHT22;32708;51.212;6.788;2023-04-03T03:39:14;3.80;99.90
48604;DHT22;32708;51.212;6.788;2023-04-03T03:41:40;3.70;99.90
48604;DHT22;32708;51.212;6.788;2023-04-03T03:44:07;3.80;99.90
48604;DHT22;32708;51.212;6.788;2023-04-03T03:46:33;3.80;99.90
48604;DHT22;32708;51.212;6.788;2023-04-03T03:48:59;3.60;99.90
48604;DHT22;32708;51.212;6.788;2023-04-03T03:51:25;3.60;99.90
48604;DHT22;32708;51.212;6.788;2023-04-03T03:53:52;3.60;99.90
48604;DHT22;32708;51.212;6.788;2023-04-03T03:56:19;3.60;99.90
48604;DHT22;32708;51.212;6.788;2023-04-03T03:58:46;3.80;99.90
48604;DHT22;32708;51.212;6.788;2023-04-03T04:01:12;3.40;99.90
48604;DHT22;32708;51.212;6.788;2023-04-03T04:03:43;3.50;99.90
48604;DHT22;32708;51.212;6.788;2023-04-03T04:06:12;3.50;99.90
48604;DHT22;32708;51.212;6.788;2023-04-03T04:08:40;3.40;99.90
48604;DHT22;32708;51.212;6.788;2023-04-03T04:11:09;3.50;99.90
48604;DHT22;32708;51.212;6.788;2023-04-03T04:13:35;3.40;99.90
48604;DHT22;32708;51.212;6.788;2023-04-03T04:16:02;3.40;99.90
48604;DHT22;32708;51.212;6.788;2023-04-03T04:18:29;3.30;99.90
48604;DHT22;32708;51.212;6.788;2023-04-03T04:20:55;3.40;99.90
48604;DHT22;32708;51.212;6.788;2023-04-03T04:23:22;3.30;99.90
48604;DHT22;32708;51.212;6.788;2023-04-03T04:25:50;3.70;99.90
48604;DHT22;32708;51.212;6.788;2023-04-03T04:28:17;3.30;99.90
48604;DHT22;32708;51.212;6.788;2023-04-03T04:30:44;3.30;99.90
48604;DHT22;32708;51.212;6.788;2023-04-03T04:33:11;3.20;99.90
48604;DHT22;32708;51.212;6.788;2023-04-03T04:35:38;3.20;99.90
48604;DHT22;32708;51.212;6.788;2023-04-03T04:38:04;3.30;99.90
48604;DHT22;32708;51.212;6.788;2023-04-03T04:40:31;3.30;99.90
48604;DHT22;32708;51.212;6.788;2023-04-03T04:42:58;3.30;99.90
48604;DHT22;32708;51.212;6.788;2023-04-03T04:45:24;3.20;99.90
48604;DHT22;32708;51.212;6.788;2023-04-03T04:47:50;3.20;99.90
48604;DHT22;32708;51.212;6.788;2023-04-03T04:50:18;3.20;99.90
48604;DHT22;32708;51.212;6.788;2023-04-03T04:52:44;3.30;99.90
48604;DHT22;32708;51.212;6.788;2023-04-03T04:55:10;3.30;99.90
48604;DHT22;32708;51.212;6.788;2023-04-03T04:57:36;3.10;99.90
48604;DHT22;32708;51.212;6.788;2023-04-03T05:00:05;3.30;99.90
48604;DHT22;32708;51.212;6.788;2023-04-03T05:02:31;3.10;99.90
48604;DHT22;32708;51.212;6.788;2023-04-03T05:04:58;3.10;99.90
48604;DHT22;32708;51.212;6.788;2023-04-03T05:07:27;3.10;99.90
48604;DHT22;32708;51.212;6.788;2023-04-03T05:09:53;3.10;99.90
48604;DHT22;32708;51.212;6.788;2023-04-03T05:12:20;3.10;99.90
48604;DHT22;32708;51.212;6.788;2023-04-03T05:14:52;3.10;99.90
48604;DHT22;32708;51.212;6.788;2023-04-03T05:17:19;3.10;99.90
48604;DHT22;32708;51.212;6.788;2023-04-03T05:19:49;3.10;99.90
48604;DHT22;32708;51.212;6.788;2023-04-03T05:22:17;3.20;99.90
48604;DHT22;32708;51.212;6.788;2023-04-03T05:24:44;3.10;99.90
48604;DHT22;32708;51.212;6.788;2023-04-03T05:27:10;3.10;99.90
48604;DHT22;32708;51.212;6.788;2023-04-03T05:29:40;3.20;99.90
48604;DHT22;32708;51.212;6.788;2023-04-03T05:32:10;3.10;99.90
48604;DHT22;32708;51.212;6.788;2023-04-03T05:34:36;3.20;99.90
48604;DHT22;32708;51.212;6.788;2023-04-03T05:37:03;3.20;99.90
48604;DHT22;32708;51.212;6.788;2023-04-03T05:39:30;3.40;99.90
48604;DHT22;32708;51.212;6.788;2023-04-03T05:41:59;3.40;99.90
48604;DHT22;32708;51.212;6.788;2023-04-03T05:44:26;3.50;99.50
48604;DHT22;32708;51.212;6.788;2023-04-03T05:46:54;3.70;99.30
48604;DHT22;32708;51.212;6.788;2023-04-03T05:49:20;3.80;93.90
48604;DHT22;32708;51.212;6.788;2023-04-03T05:51:46;3.80;97.20
48604;DHT22;32708;51.212;6.788;2023-04-03T05:54:22;3.90;93.30
48604;DHT22;32708;51.212;6.788;2023-04-03T05:56:50;3.90;93.70
48604;DHT22;32708;51.212;6.788;2023-04-03T05:59:18;3.90;92.40
48604;DHT22;32708;51.212;6.788;2023-04-03T06:01:46;4.00;92.60
48604;DHT22;32708;51.212;6.788;2023-04-03T06:04:12;4.10;89.00
48604;DHT22;32708;51.212;6.788;2023-04-03T06:06:56;3.90;92.60
48604;DHT22;32708;51.212;6.788;2023-04-03T06:09:27;4.00;83.90
48604;DHT22;32708;51.212;6.788;2023-04-03T06:11:55;4.50;72.80
48604;DHT22;32708;51.212;6.788;2023-04-03T06:14:23;4.50;65.00
48604;DHT22;32708;51.212;6.788;2023-04-03T06:16:49;4.60;65.50
48604;DHT22;32708;51.212;6.788;2023-04-03T06:19:15;4.90;44.90
48604;DHT22;32708;51.212;6.788;2023-04-03T06:21:46;5.20;30.10
48604;DHT22;32708;51.212;6.788;2023-04-03T06:24:17;5.50;1.00
48604;DHT22;32708;51.212;6.788;2023-04-03T06:26:43;5.90;1.00
48604;DHT22;32708;51.212;6.788;2023-04-03T06:29:10;6.40;1.00
48604;DHT22;32708;51.212;6.788;2023-04-03T06:31:36;6.90;99.90
48604;DHT22;32708;51.212;6.788;2023-04-03T06:34:03;7.20;5.60
48604;DHT22;32708;51.212;6.788;2023-04-03T06:36:29;6.50;99.90
48604;DHT22;32708;51.212;6.788;2023-04-03T06:38:55;6.50;99.90
48604;DHT22;32708;51.212;6.788;2023-04-03T06:41:21;6.60;99.90
48604;DHT22;32708;51.212;6.788;2023-04-03T06:43:47;6.90;99.90
48604;DHT22;32708;51.212;6.788;2023-04-03T06:46:17;6.80;99.50
48604;DHT22;32708;51.212;6.788;2023-04-03T06:48:44;6.60;99.90
48604;DHT22;32708;51.212;6.788;2023-04-03T06:51:21;7.10;99.90
48604;DHT22;32708;51.212;6.788;2023-04-03T06:53:48;6.40;99.90
48604;DHT22;32708;51.212;6.788;2023-04-03T06:56:14;6.70;99.90
48604;DHT22;32708;51.212;6.788;2023-04-03T06:58:41;6.50;99.90
48604;DHT22;32708;51.212;6.788;2023-04-03T07:01:08;6.70;99.90
48604;DHT22;32708;51.212;6.788;2023-04-03T07:03:36;6.40;99.90
48604;DHT22;32708;51.212;6.788;2023-04-03T07:06:03;5.90;1.00
48604;DHT22;32708;51.212;6.788;2023-04-03T07:08:30;6.40;99.90
48604;DHT22;32708;51.212;6.788;2023-04-03T07:10:56;7.20;58.80
48604;DHT22;32708;51.212;6.788;2023-04-03T07:13:22;7.30;99.90
48604;DHT22;32708;51.212;6.788;2023-04-03T07:15:48;7.10;99.90
48604;DHT22;32708;51.212;6.788;2023-04-03T07:18:14;7.20;1.00
48604;DHT22;32708;51.212;6.788;2023-04-03T07:20:41;6.60;99.90
48604;DHT22;32708;51.212;6.788;2023-04-03T07:23:07;6.70;99.90
48604;DHT22;32708;51.212;6.788;2023-04-03T07:25:33;7.00;99.90
48604;DHT22;32708;51.212;6.788;2023-04-03T07:27:59;6.70;99.90
48604;DHT22;32708;51.212;6.788;2023-04-03T07:30:25;6.70;99.90
48604;DHT22;32708;51.212;6.788;2023-04-03T07:32:52;6.80;1.00
48604;DHT22;32708;51.212;6.788;2023-04-03T07:35:18;7.30;99.90
48604;DHT22;32708;51.212;6.788;2023-04-03T07:37:44;7.40;1.00
48604;DHT22;32708;51.212;6.788;2023-04-03T07:40:10;7.20;99.90
48604;DHT22;32708;51.212;6.788;2023-04-03T07:42:36;7.10;29.80
48604;DHT22;32708;51.212;6.788;2023-04-03T07:45:04;7.30;1.00
48604;DHT22;32708;51.212;6.788;2023-04-03T07:47:30;7.50;99.90
48604;DHT22;32708;51.212;6.788;2023-04-03T07:49:57;7.50;99.90
48604;DHT22;32708;51.212;6.788;2023-04-03T07:52:24;7.80;99.90
48604;DHT22;32708;51.212;6.788;2023-04-03T07:54:50;7.50;1.00
48604;DHT22;32708;51.212;6.788;2023-04-03T07:57:16;7.60;38.50
48604;DHT22;32708;51.212;6.788;2023-04-03T07:59:42;8.00;99.90
48604;DHT22;32708;51.212;6.788;2023-04-03T08:02:12;7.60;99.90
48604;DHT22;32708;51.212;6.788;2023-04-03T08:04:38;8.00;99.90
48604;DHT22;32708;51.212;6.788;2023-04-03T08:07:04;7.60;99.90
48604;DHT22;32708;51.212;6.788;2023-04-03T08:09:31;7.60;99.90
48604;DHT22;32708;51.212;6.788;2023-04-03T08:11:58;8.10;99.90
48604;DHT22;32708;51.212;6.788;2023-04-03T08:14:24;8.20;99.90
48604;DHT22;32708;51.212;6.788;2023-04-03T08:16:50;8.10;99.90
48604;DHT22;32708;51.212;6.788;2023-04-03T08:19:17;8.20;99.90
48604;DHT22;32708;51.212;6.788;2023-04-03T08:21:45;8.60;50.80
48604;DHT22;32708;51.212;6.788;2023-04-03T08:24:12;8.90;99.90
48604;DHT22;32708;51.212;6.788;2023-04-03T08:26:38;8.50;99.90
48604;DHT22;32708;51.212;6.788;2023-04-03T08:29:04;8.50;99.90
48604;DHT22;32708;51.212;6.788;2023-04-03T08:31:30;9.20;1.00
48604;DHT22;32708;51.212;6.788;2023-04-03T08:33:57;8.90;1.00
48604;DHT22;32708;51.212;6.788;2023-04-03T08:36:26;7.70;1.00
48604;DHT22;32708;51.212;6.788;2023-04-03T08:38:53;8.50;1.00
48604;DHT22;32708;51.212;6.788;2023-04-03T08:41:35;8.40;1.00
48604;DHT22;32708;51.212;6.788;2023-04-03T08:46:55;8.60;1.00
48604;DHT22;32708;51.212;6.788;2023-04-03T08:49:32;8.20;1.00
48604;DHT22;32708;51.212;6.788;2023-04-03T08:52:05;8.50;1.00
48604;DHT22;32708;51.212;6.788;2023-04-03T08:54:50;9.10;99.90
48604;DHT22;32708;51.212;6.788;2023-04-03T08:57:20;9.20;99.90
48604;DHT22;32708;51.212;6.788;2023-04-03T08:59:47;8.30;99.90
48604;DHT22;32708;51.212;6.788;2023-04-03T09:02:25;8.00;99.90
48604;DHT22;32708;51.212;6.788;2023-04-03T09:04:53;8.10;99.90
48604;DHT22;32708;51.212;6.788;2023-04-03T09:07:36;8.70;99.90
48604;DHT22;32708;51.212;6.788;2023-04-03T09:10:05;8.50;99.90
48604;DHT22;32708;51.212;6.788;2023-04-03T09:12:41;9.50;99.90
48604;DHT22;32708;51.212;6.788;2023-04-03T09:15:21;9.30;99.90
48604;DHT22;32708;51.212;6.788;2023-04-03T09:18:13;9.00;99.90
48604;DHT22;32708;51.212;6.788;2023-04-03T09:20:49;8.90;99.90
48604;DHT22;32708;51.212;6.788;2023-04-03T09:23:28;9.20;99.90
48604;DHT22;32708;51.212;6.788;2023-04-03T09:26:05;9.30;99.90
48604;DHT22;32708;51.212;6.788;2023-04-03T09:28:38;9.20;99.90
48604;DHT22;32708;51.212;6.788;2023-04-03T09:33:50;8.80;99.90
48604;DHT22;32708;51.212;6.788;2023-04-03T09:36:53;8.60;99.90
48604;DHT22;32708;51.212;6.788;2023-04-03T09:39:24;8.80;99.90
48604;DHT22;32708;51.212;6.788;2023-04-03T09:44:34;9.00;99.90
48604;DHT22;32708;51.212;6.788;2023-04-03T09:47:24;9.20;99.90
48604;DHT22;32708;51.212;6.788;2023-04-03T09:49:50;9.70;99.90
48604;DHT22;32708;51.212;6.788;2023-04-03T09:52:24;9.10;99.90
48604;DHT22;32708;51.212;6.788;2023-04-03T09:54:51;8.80;99.90
48604;DHT22;32708;51.212;6.788;2023-04-03T09:57:17;9.50;99.90
48604;DHT22;32708;51.212;6.788;2023-04-03T09:59:58;9.70;99.90
48604;DHT22;32708;51.212;6.788;2023-04-03T10:02:30;9.30;99.90
48604;DHT22;32708;51.212;6.788;2023-04-03T10:04:58;9.30;99.90
48604;DHT22;32708;51.212;6.788;2023-04-03T10:07:36;9.10;99.90
48604;DHT22;32708;51.212;6.788;2023-04-03T10:10:18;8.80;99.90
48604;DHT22;32708;51.212;6.788;2023-04-03T10:12:45;8.90;99.90
48604;DHT22;32708;51.212;6.788;2023-04-03T10:15:14;9.00;99.90
48604;DHT22;32708;51.212;6.788;2023-04-03T10:25:32;9.30;99.90
48604;DHT22;32708;51.212;6.788;2023-04-03T10:36:19;9.50;99.90
48604;DHT22;32708;51.212;6.788;2023-04-03T10:44:32;10.20;99.90
48604;DHT22;32708;51.212;6.788;2023-04-03T10:50:20;10.20;99.90
48604;DHT22;32708;51.212;6.788;2023-04-03T10:58:28;10.10;99.90
48604;DHT22;32708;51.212;6.788;2023-04-03T11:01:02;10.10;99.90
48604;DHT22;32708;51.212;6.788;2023-04-03T11:03:45;9.90;99.90
48604;DHT22;32708;51.212;6.788;2023-04-03T11:06:15;10.10;99.90
48604;DHT22;32708;51.212;6.788;2023-04-03T11:09:02;10.20;99.90
48604;DHT22;32708;51.212;6.788;2023-04-03T11:11:35;10.50;99.90
48604;DHT22;32708;51.212;6.788;2023-04-03T11:14:13;10.00;99.90
48604;DHT22;32708;51.212;6.788;2023-04-03T11:16:48;10.30;99.90
48604;DHT22;32708;51.212;6.788;2023-04-03T11:19:45;11.30;99.90
48604;DHT22;32708;51.212;6.788;2023-04-03T11:22:26;10.70;99.90
48604;DHT22;32708;51.212;6.788;2023-04-03T11:25:18;10.70;99.90
48604;DHT22;32708;51.212;6.788;2023-04-03T11:28:05;10.50;99.90
48604;DHT22;32708;51.212;6.788;2023-04-03T11:33:18;10.10;99.90
48604;DHT22;32708;51.212;6.788;2023-04-03T11:35:52;10.20;99.90
48604;DHT22;32708;51.212;6.788;2023-04-03T11:38:33;10.50;99.90
48604;DHT22;32708;51.212;6.788;2023-04-03T11:41:08;10.80;99.90
48604;DHT22;32708;51.212;6.788;2023-04-03T11:43:41;10.70;99.90
48604;DHT22;32708;51.212;6.788;2023-04-03T11:46:09;10.50;99.90
48604;DHT22;32708;51.212;6.788;2023-04-03T11:53:52;10.60;98.10
48604;DHT22;32708;51.212;6.788;2023-04-03T12:04:24;10.40;96.30
48604;DHT22;32708;51.212;6.788;2023-04-03T12:07:23;10.70;97.70
48604;DHT22;32708;51.212;6.788;2023-04-03T12:14:54;11.10;95.70
48604;DHT22;32708;51.212;6.788;2023-04-03T12:17:28;11.20;95.50
48604;DHT22;32708;51.212;6.788;2023-04-03T12:19:55;11.20;95.90
48604;DHT22;32708;51.212;6.788;2023-04-03T12:22:23;11.20;95.90
48604;DHT22;32708;51.212;6.788;2023-04-03T12:24:54;10.60;94.90
48604;DHT22;32708;51.212;6.788;2023-04-03T12:27:33;10.30;97.90
48604;DHT22;32708;51.212;6.788;2023-04-03T12:30:26;10.30;99.90
48604;DHT22;32708;51.212;6.788;2023-04-03T12:37:09;10.00;99.90
48604;DHT22;32708;51.212;6.788;2023-04-03T12:39:53;9.90;99.90
48604;DHT22;32708;51.212;6.788;2023-04-03T12:47:37;9.80;99.90
48604;DHT22;32708;51.212;6.788;2023-04-03T12:50:15;9.90;99.90
48604;DHT22;32708;51.212;6.788;2023-04-03T12:52:51;9.90;99.90
48604;DHT22;32708;51.212;6.788;2023-04-03T12:55:21;9.60;99.90
48604;DHT22;32708;51.212;6.788;2023-04-03T12:57:49;9.40;99.90
48604;DHT22;32708;51.212;6.788;2023-04-03T13:00:42;9.60;99.90
48604;DHT22;32708;51.212;6.788;2023-04-03T13:03:23;9.90;99.90
48604;DHT22;32708;51.212;6.788;2023-04-03T13:05:50;10.10;99.90
48604;DHT22;32708;51.212;6.788;2023-04-03T13:08:22;10.10;99.90
48604;DHT22;32708;51.212;6.788;2023-04-03T13:11:00;9.90;99.90
48604;DHT22;32708;51.212;6.788;2023-04-03T13:13:28;9.80;99.90
48604;DHT22;32708;51.212;6.788;2023-04-03T13:15:54;9.70;99.90
48604;DHT22;32708;51.212;6.788;2023-04-03T13:18:23;10.10;99.90
48604;DHT22;32708;51.212;6.788;2023-04-03T13:20:53;10.00;99.90
48604;DHT22;32708;51.212;6.788;2023-04-03T13:23:21;10.10;99.90
48604;DHT22;32708;51.212;6.788;2023-04-03T13:25:50;10.10;99.90
48604;DHT22;32708;51.212;6.788;2023-04-03T13:28:22;10.10;99.90
48604;DHT22;32708;51.212;6.788;2023-04-03T13:31:00;10.30;99.90
48604;DHT22;32708;51.212;6.788;2023-04-03T13:33:30;10.00;99.90
48604;DHT22;32708;51.212;6.788;2023-04-03T13:36:07;10.00;99.90
48604;DHT22;32708;51.212;6.788;2023-04-03T13:38:34;9.80;99.90
48604;DHT22;32708;51.212;6.788;2023-04-03T13:41:20;9.60;99.90
48604;DHT22;32708;51.212;6.788;2023-04-03T13:43:46;9.60;99.90
48604;DHT22;32708;51.212;6.788;2023-04-03T13:48:43;9.90;99.90
48604;DHT22;32708;51.212;6.788;2023-04-03T13:53:52;10.30;99.90
48604;DHT22;32708;51.212;6.788;2023-04-03T13:56:21;9.50;99.90
48604;DHT22;32708;51.212;6.788;2023-04-03T14:01:25;9.60;99.90
48604;DHT22;32708;51.212;6.788;2023-04-03T14:03:58;9.90;99.90
48604;DHT22;32708;51.212;6.788;2023-04-03T14:06:24;9.80;99.90
48604;DHT22;32708;51.212;6.788;2023-04-03T14:08:51;9.60;99.90
48604;DHT22;32708;51.212;6.788;2023-04-03T14:11:22;9.60;99.90
48604;DHT22;32708;51.212;6.788;2023-04-03T14:13:50;9.60;99.90
48604;DHT22;32708;51.212;6.788;2023-04-03T14:16:25;9.70;99.90
48604;DHT22;32708;51.212;6.788;2023-04-03T14:18:53;9.60;99.90
48604;DHT22;32708;51.212;6.788;2023-04-03T14:21:20;9.50;99.90
48604;DHT22;32708;51.212;6.788;2023-04-03T14:23:47;9.60;99.90
48604;DHT22;32708;51.212;6.788;2023-04-03T14:26:17;9.90;99.90
48604;DHT22;32708;51.212;6.788;2023-04-03T14:28:48;9.40;99.90
48604;DHT22;32708;51.212;6.788;2023-04-03T14:31:16;9.70;99.90
48604;DHT22;32708;51.212;6.788;2023-04-03T14:33:44;9.30;99.90
48604;DHT22;32708;51.212;6.788;2023-04-03T14:36:25;9.40;99.90
48604;DHT22;32708;51.212;6.788;2023-04-03T14:38:52;9.50;99.90
48604;DHT22;32708;51.212;6.788;2023-04-03T14:41:21;9.40;99.90
48604;DHT22;32708;51.212;6.788;2023-04-03T14:43:49;9.30;99.90
48604;DHT22;32708;51.212;6.788;2023-04-03T14:46:22;9.50;99.90
48604;DHT22;32708;51.212;6.788;2023-04-03T14:48:49;9.50;99.90
48604;DHT22;32708;51.212;6.788;2023-04-03T14:51:16;9.40;99.90
48604;DHT22;32708;51.212;6.788;2023-04-03T14:53:43;9.30;99.90
48604;DHT22;32708;51.212;6.788;2023-04-03T14:56:27;9.40;99.90
48604;DHT22;32708;51.212;6.788;2023-04-03T14:59:00;9.70;99.90
48604;DHT22;32708;51.212;6.788;2023-04-03T15:01:27;9.90;99.90
48604;DHT22;32708;51.212;6.788;2023-04-03T15:03:54;9.60;99.90
48604;DHT22;32708;51.212;6.788;2023-04-03T15:06:20;9.50;99.90
48604;DHT22;32708;51.212;6.788;2023-04-03T15:08:49;10.00;99.90
48604;DHT22;32708;51.212;6.788;2023-04-03T15:11:15;9.80;99.90
48604;DHT22;32708;51.212;6.788;2023-04-03T15:13:41;9.80;99.90
48604;DHT22;32708;51.212;6.788;2023-04-03T15:16:16;9.50;99.90
48604;DHT22;32708;51.212;6.788;2023-04-03T15:18:45;9.40;99.90
48604;DHT22;32708;51.212;6.788;2023-04-03T15:21:15;9.40;99.90
48604;DHT22;32708;51.212;6.788;2023-04-03T15:23:42;9.50;99.90
48604;DHT22;32708;51.212;6.788;2023-04-03T15:26:09;9.50;99.90
48604;DHT22;32708;51.212;6.788;2023-04-03T15:28:39;9.50;99.90
48604;DHT22;32708;51.212;6.788;2023-04-03T15:31:06;9.50;99.90
48604;DHT22;32708;51.212;6.788;2023-04-03T15:33:34;9.10;99.90
48604;DHT22;32708;51.212;6.788;2023-04-03T15:36:00;9.20;99.90
48604;DHT22;32708;51.212;6.788;2023-04-03T15:38:27;9.20;99.90
48604;DHT22;32708;51.212;6.788;2023-04-03T15:40:54;9.20;99.90
48604;DHT22;32708;51.212;6.788;2023-04-03T15:43:21;9.20;99.90
48604;DHT22;32708;51.212;6.788;2023-04-03T15:45:47;9.20;99.90
48604;DHT22;32708;51.212;6.788;2023-04-03T15:48:14;9.40;99.90
48604;DHT22;32708;51.212;6.788;2023-04-03T15:50:41;9.30;99.90
48604;DHT22;32708;51.212;6.788;2023-04-03T15:53:08;9.40;99.90
48604;DHT22;32708;51.212;6.788;2023-04-03T15:55:37;9.30;99.90
48604;DHT22;32708;51.212;6.788;2023-04-03T15:58:04;9.30;99.90
48604;DHT22;32708;51.212;6.788;2023-04-03T16:00:31;9.50;99.90
48604;DHT22;32708;51.212;6.788;2023-04-03T16:03:10;9.20;99.90
48604;DHT22;32708;51.212;6.788;2023-04-03T16:05:38;9.10;99.90
48604;DHT22;32708;51.212;6.788;2023-04-03T16:08:05;9.00;99.90
48604;DHT22;32708;51.212;6.788;2023-04-03T16:10:35;9.00;99.90
48604;DHT22;32708;51.212;6.788;2023-04-03T16:13:02;9.10;99.90
48604;DHT22;32708;51.212;6.788;2023-04-03T16:18:31;9.00;99.90
48604;DHT22;32708;51.212;6.788;2023-04-03T16:20:57;9.00;99.90
48604;DHT22;32708;51.212;6.788;2023-04-03T16:23:24;8.80;99.90
48604;DHT22;32708;51.212;6.788;2023-04-03T16:25:53;8.80;99.90
48604;DHT22;32708;51.212;6.788;2023-04-03T16:28:21;8.90;99.90
48604;DHT22;32708;51.212;6.788;2023-04-03T16:30:53;9.00;99.90
48604;DHT22;32708;51.212;6.788;2023-04-03T16:33:19;8.90;99.90
48604;DHT22;32708;51.212;6.788;2023-04-03T16:35:48;9.00;99.90
48604;DHT22;32708;51.212;6.788;2023-04-03T16:38:36;9.00;99.90
48604;DHT22;32708;51.212;6.788;2023-04-03T16:41:05;8.90;99.90
48604;DHT22;32708;51.212;6.788;2023-04-03T16:43:32;8.90;99.90
48604;DHT22;32708;51.212;6.788;2023-04-03T16:45:58;8.70;99.90
48604;DHT22;32708;51.212;6.788;2023-04-03T16:48:25;8.60;99.90
48604;DHT22;32708;51.212;6.788;2023-04-03T16:50:51;8.70;99.90
48604;DHT22;32708;51.212;6.788;2023-04-03T16:53:23;8.70;99.90
48604;DHT22;32708;51.212;6.788;2023-04-03T16:55:51;8.60;99.90
48604;DHT22;32708;51.212;6.788;2023-04-03T16:58:19;8.60;99.90
48604;DHT22;32708;51.212;6.788;2023-04-03T17:00:46;8.50;99.90
48604;DHT22;32708;51.212;6.788;2023-04-03T17:03:15;8.50;99.90
48604;DHT22;32708;51.212;6.788;2023-04-03T17:05:47;8.40;99.90
48604;DHT22;32708;51.212;6.788;2023-04-03T17:08:22;8.50;99.90
48604;DHT22;32708;51.212;6.788;2023-04-03T17:10:49;8.50;99.90
48604;DHT22;32708;51.212;6.788;2023-04-03T17:13:24;8.60;99.90
48604;DHT22;32708;51.212;6.788;2023-04-03T17:15:58;8.40;99.90
48604;DHT22;32708;51.212;6.788;2023-04-03T17:21:21;8.40;99.90
48604;DHT22;32708;51.212;6.788;2023-04-03T17:23:52;8.40;99.90
48604;DHT22;32708;51.212;6.788;2023-04-03T17:26:24;8.30;99.90